sensor_id;sensor_type;location;lat;lon;timestamp;pressure;altitude;pressure_sealevel;temperature;humidity
7109;BME280;29079;41.930;25.558;2023-09-19T00:01:16;100003.13;;;16.12;79.22
7109;BME280;29079;41.930;25.558;2023-09-19T00:04:08;100010.06;;;15.89;80.18
7109;BME280;29079;41.930;25.558;2023-09-19T00:06:56;100001.78;;;15.82;80.58
7109;BME280;29079;41.930;25.558;2023-09-19T00:09:44;100008.41;;;15.96;80.22
7109;BME280;29079;41.930;25.558;2023-09-19T00:12:32;100005.28;;;16.09;79.79
7109;BME280;29079;41.930;25.558;2023-09-19T00:15:20;100008.53;;;16.21;79.56
7109;BME280;29079;41.930;25.558;2023-09-19T00:18:08;100006.22;;;16.26;80.62
7109;BME280;29079;41.930;25.558;2023-09-19T00:20:58;100006.72;;;16.29;78.61
7109;BME280;29079;41.930;25.558;2023-09-19T00:23:46;99998.03;;;16.01;79.29
7109;BME280;29079;41.930;25.558;2023-09-19T00:26:34;99989.06;;;15.92;79.40
7109;BME280;29079;41.930;25.558;2023-09-19T00:29:22;99995.16;;;16.02;79.43
7109;BME280;29079;41.930;25.558;2023-09-19T00:32:10;99993.56;;;16.18;78.93
7109;BME280;29079;41.930;25.558;2023-09-19T00:34:58;99992.09;;;16.24;78.63
7109;BME280;29079;41.930;25.558;2023-09-19T00:37:47;99990.31;;;16.06;79.37
7109;BME280;29079;41.930;25.558;2023-09-19T00:40:35;99998.78;;;15.85;80.48
7109;BME280;29079;41.930;25.558;2023-09-19T00:43:23;99994.16;;;15.77;80.76
7109;BME280;29079;41.930;25.558;2023-09-19T00:46:11;99984.97;;;15.62;80.32
7109;BME280;29079;41.930;25.558;2023-09-19T00:48:59;99995.06;;;15.60;80.54
7109;BME280;29079;41.930;25.558;2023-09-19T00:51:48;99990.09;;;15.73;80.59
7109;BME280;29079;41.930;25.558;2023-09-19T00:54:38;100001.13;;;15.18;83.09
7109;BME280;29079;41.930;25.558;2023-09-19T00:57:27;99997.69;;;15.52;81.52
7109;BME280;29079;41.930;25.558;2023-09-19T01:00:19;99991.56;;;15.41;81.61
7109;BME280;29079;41.930;25.558;2023-09-19T01:03:07;99993.78;;;15.46;80.98
7109;BME280;29079;41.930;25.558;2023-09-19T01:05:56;99997.59;;;15.61;80.20
7109;BME280;29079;41.930;25.558;2023-09-19T01:08:44;99999.69;;;15.49;80.81
7109;BME280;29079;41.930;25.558;2023-09-19T01:11:38;99994.56;;;15.82;81.54
7109;BME280;29079;41.930;25.558;2023-09-19T01:14:33;99992.06;;;15.63;80.84
7109;BME280;29079;41.930;25.558;2023-09-19T01:17:26;99990.84;;;15.39;82.57
7109;BME280;29079;41.930;25.558;2023-09-19T01:20:27;99992.72;;;15.65;81.58
7109;BME280;29079;41.930;25.558;2023-09-19T01:23:23;99983.59;;;15.13;84.30
7109;BME280;29079;41.930;25.558;2023-09-19T01:26:28;99994.72;;;15.81;82.93
7109;BME280;29079;41.930;25.558;2023-09-19T01:29:23;99993.34;;;15.32;84.08
7109;BME280;29079;41.930;25.558;2023-09-19T01:32:21;99987.50;;;15.63;82.53
7109;BME280;29079;41.930;25.558;2023-09-19T01:35:11;99982.81;;;15.21;83.87
7109;BME280;29079;41.930;25.558;2023-09-19T01:38:00;99987.97;;;15.32;83.68
7109;BME280;29079;41.930;25.558;2023-09-19T01:41:02;99984.28;;;15.15;84.72
7109;BME280;29079;41.930;25.558;2023-09-19T01:43:53;99978.34;;;15.30;84.64
7109;BME280;29079;41.930;25.558;2023-09-19T01:46:41;99981.44;;;15.35;84.26
7109;BME280;29079;41.930;25.558;2023-09-19T01:49:36;99979.91;;;15.14;86.15
7109;BME280;29079;41.930;25.558;2023-09-19T01:52:28;99977.41;;;15.39;85.56
7109;BME280;29079;41.930;25.558;2023-09-19T01:55:19;99981.47;;;15.43;85.06
7109;BME280;29079;41.930;25.558;2023-09-19T01:58:10;99970.97;;;15.32;84.80
7109;BME280;29079;41.930;25.558;2023-09-19T02:01:00;99973.53;;;15.34;84.87
7109;BME280;29079;41.930;25.558;2023-09-19T02:03:50;99940.69;;;15.04;84.87
7109;BME280;29079;41.930;25.558;2023-09-19T02:06:41;99971.59;;;15.44;84.16
7109;BME280;29079;41.930;25.558;2023-09-19T02:09:29;99969.69;;;15.18;85.86
7109;BME280;29079;41.930;25.558;2023-09-19T02:12:16;99968.88;;;15.18;86.05
7109;BME280;29079;41.930;25.558;2023-09-19T02:15:05;99966.97;;;15.36;85.28
7109;BME280;29079;41.930;25.558;2023-09-19T02:17:54;99969.31;;;15.31;85.75
7109;BME280;29079;41.930;25.558;2023-09-19T02:20:43;99969.84;;;15.17;84.83
7109;BME280;29079;41.930;25.558;2023-09-19T02:23:33;99974.44;;;15.24;85.57
7109;BME280;29079;41.930;25.558;2023-09-19T02:26:22;99971.19;;;15.39;84.70
7109;BME280;29079;41.930;25.558;2023-09-19T02:29:14;99972.22;;;15.20;84.94
7109;BME280;29079;41.930;25.558;2023-09-19T02:32:02;99969.94;;;15.07;86.17
7109;BME280;29079;41.930;25.558;2023-09-19T02:34:51;99971.00;;;15.14;86.24
7109;BME280;29079;41.930;25.558;2023-09-19T02:37:40;99956.09;;;15.20;85.96
7109;BME280;29079;41.930;25.558;2023-09-19T02:40:29;99966.56;;;15.05;87.46
7109;BME280;29079;41.930;25.558;2023-09-19T02:43:18;99957.13;;;15.01;86.57
7109;BME280;29079;41.930;25.558;2023-09-19T02:46:07;99961.88;;;14.71;88.36
7109;BME280;29079;41.930;25.558;2023-09-19T02:48:56;99966.47;;;14.96;87.18
7109;BME280;29079;41.930;25.558;2023-09-19T02:51:45;99957.16;;;15.27;85.68
7109;BME280;29079;41.930;25.558;2023-09-19T02:54:34;99951.50;;;15.12;86.08
7109;BME280;29079;41.930;25.558;2023-09-19T02:57:23;99956.41;;;15.17;86.09
7109;BME280;29079;41.930;25.558;2023-09-19T03:00:12;99954.53;;;15.35;84.95
7109;BME280;29079;41.930;25.558;2023-09-19T03:03:01;99949.72;;;15.03;85.28
7109;BME280;29079;41.930;25.558;2023-09-19T03:05:50;99948.06;;;14.84;86.69
7109;BME280;29079;41.930;25.558;2023-09-19T03:08:41;99959.13;;;14.80;87.08
7109;BME280;29079;41.930;25.558;2023-09-19T03:11:30;99946.09;;;14.86;86.59
7109;BME280;29079;41.930;25.558;2023-09-19T03:14:21;99920.66;;;14.98;85.59
7109;BME280;29079;41.930;25.558;2023-09-19T03:17:09;99918.75;;;14.90;86.22
7109;BME280;29079;41.930;25.558;2023-09-19T03:19:58;99944.84;;;14.98;86.26
7109;BME280;29079;41.930;25.558;2023-09-19T03:22:46;99942.44;;;15.13;85.91
7109;BME280;29079;41.930;25.558;2023-09-19T03:25:35;99941.84;;;15.01;86.18
7109;BME280;29079;41.930;25.558;2023-09-19T03:28:23;99947.06;;;14.85;86.81
7109;BME280;29079;41.930;25.558;2023-09-19T03:31:13;99940.00;;;14.66;87.32
7109;BME280;29079;41.930;25.558;2023-09-19T03:34:01;99941.59;;;14.76;87.07
7109;BME280;29079;41.930;25.558;2023-09-19T03:36:49;99948.78;;;14.86;86.54
7109;BME280;29079;41.930;25.558;2023-09-19T03:39:38;99950.44;;;14.87;86.39
7109;BME280;29079;41.930;25.558;2023-09-19T03:42:26;99948.22;;;14.64;86.70
7109;BME280;29079;41.930;25.558;2023-09-19T03:45:14;99952.47;;;14.57;87.41
7109;BME280;29079;41.930;25.558;2023-09-19T03:48:08;99958.22;;;14.44;87.33
7109;BME280;29079;41.930;25.558;2023-09-19T03:50:56;99960.50;;;14.39;88.18
7109;BME280;29079;41.930;25.558;2023-09-19T03:53:44;99959.25;;;14.33;88.65
7109;BME280;29079;41.930;25.558;2023-09-19T03:56:32;99961.25;;;14.31;88.39
7109;BME280;29079;41.930;25.558;2023-09-19T03:59:20;99954.97;;;14.40;88.66
7109;BME280;29079;41.930;25.558;2023-09-19T04:02:07;99954.53;;;14.45;87.66
7109;BME280;29079;41.930;25.558;2023-09-19T04:05:10;99957.06;;;14.47;88.33
7109;BME280;29079;41.930;25.558;2023-09-19T04:07:58;99955.16;;;14.57;87.31
7109;BME280;29079;41.930;25.558;2023-09-19T04:10:46;99961.34;;;14.39;87.59
7109;BME280;29079;41.930;25.558;2023-09-19T04:13:34;99956.00;;;14.12;88.78
7109;BME280;29079;41.930;25.558;2023-09-19T04:16:22;99966.47;;;14.33;87.80
7109;BME280;29079;41.930;25.558;2023-09-19T04:19:10;99967.75;;;14.28;87.66
7109;BME280;29079;41.930;25.558;2023-09-19T04:21:59;99979.13;;;14.40;87.36
7109;BME280;29079;41.930;25.558;2023-09-19T04:24:47;99981.78;;;14.22;87.99
7109;BME280;29079;41.930;25.558;2023-09-19T04:27:35;99977.78;;;14.36;88.06
7109;BME280;29079;41.930;25.558;2023-09-19T04:30:23;99987.56;;;14.27;87.72
7109;BME280;29079;41.930;25.558;2023-09-19T04:33:11;99983.56;;;14.32;87.63
7109;BME280;29079;41.930;25.558;2023-09-19T04:36:01;99984.97;;;14.36;87.77
7109;BME280;29079;41.930;25.558;2023-09-19T04:39:11;99979.69;;;14.44;88.19
7109;BME280;29079;41.930;25.558;2023-09-19T04:42:00;99888.06;;;13.83;87.89
7109;BME280;29079;41.930;25.558;2023-09-19T04:44:48;99878.44;;;14.08;87.74
7109;BME280;29079;41.930;25.558;2023-09-19T04:47:36;99980.31;;;14.56;87.40
7109;BME280;29079;41.930;25.558;2023-09-19T04:50:25;99973.78;;;14.68;87.41
7109;BME280;29079;41.930;25.558;2023-09-19T04:53:14;99974.94;;;14.84;87.75
7109;BME280;29079;41.930;25.558;2023-09-19T04:56:05;99968.59;;;14.57;88.83
7109;BME280;29079;41.930;25.558;2023-09-19T04:58:54;99981.22;;;14.74;88.08
7109;BME280;29079;41.930;25.558;2023-09-19T05:01:42;99983.75;;;14.94;87.25
7109;BME280;29079;41.930;25.558;2023-09-19T05:04:30;99988.81;;;14.97;87.54
7109;BME280;29079;41.930;25.558;2023-09-19T05:07:18;99984.09;;;15.09;86.54
7109;BME280;29079;41.930;25.558;2023-09-19T05:10:09;99990.13;;;15.11;86.72
7109;BME280;29079;41.930;25.558;2023-09-19T05:12:59;99982.44;;;15.34;86.30
7109;BME280;29079;41.930;25.558;2023-09-19T05:15:47;99981.94;;;15.39;86.51
7109;BME280;29079;41.930;25.558;2023-09-19T05:18:36;99973.16;;;15.55;86.34
7109;BME280;29079;41.930;25.558;2023-09-19T05:21:24;99975.22;;;15.87;84.84
7109;BME280;29079;41.930;25.558;2023-09-19T05:24:15;99987.59;;;15.98;84.87
7109;BME280;29079;41.930;25.558;2023-09-19T05:27:04;99971.00;;;16.19;84.12
7109;BME280;29079;41.930;25.558;2023-09-19T05:29:55;99980.22;;;16.43;83.65
7109;BME280;29079;41.930;25.558;2023-09-19T05:32:43;99980.66;;;16.30;84.98
7109;BME280;29079;41.930;25.558;2023-09-19T05:35:31;99983.81;;;16.68;84.41
7109;BME280;29079;41.930;25.558;2023-09-19T05:38:19;99984.81;;;16.75;84.33
7109;BME280;29079;41.930;25.558;2023-09-19T05:41:07;99980.16;;;17.02;83.47
7109;BME280;29079;41.930;25.558;2023-09-19T05:43:56;99979.50;;;17.00;83.58
7109;BME280;29079;41.930;25.558;2023-09-19T05:46:50;99979.78;;;16.72;84.36
7109;BME280;29079;41.930;25.558;2023-09-19T05:49:38;99977.31;;;17.12;83.08
7109;BME280;29079;41.930;25.558;2023-09-19T05:52:27;99979.50;;;17.25;82.59
7109;BME280;29079;41.930;25.558;2023-09-19T05:55:16;99974.78;;;17.35;82.32
7109;BME280;29079;41.930;25.558;2023-09-19T05:58:04;99971.75;;;17.46;82.17
7109;BME280;29079;41.930;25.558;2023-09-19T06:00:52;99975.09;;;17.65;81.03
7109;BME280;29079;41.930;25.558;2023-09-19T06:03:41;99968.84;;;17.64;81.14
7109;BME280;29079;41.930;25.558;2023-09-19T06:06:29;99967.66;;;17.75;80.91
7109;BME280;29079;41.930;25.558;2023-09-19T06:09:17;99963.91;;;17.84;80.44
7109;BME280;29079;41.930;25.558;2023-09-19T06:12:09;99964.59;;;17.86;80.75
7109;BME280;29079;41.930;25.558;2023-09-19T06:14:59;99967.56;;;18.16;79.02
7109;BME280;29079;41.930;25.558;2023-09-19T06:17:48;99966.63;;;18.32;78.95
7109;BME280;29079;41.930;25.558;2023-09-19T06:20:37;99927.75;;;18.10;78.66
7109;BME280;29079;41.930;25.558;2023-09-19T06:23:31;99964.88;;;18.48;78.58
7109;BME280;29079;41.930;25.558;2023-09-19T06:26:19;99966.22;;;18.52;78.71
7109;BME280;29079;41.930;25.558;2023-09-19T06:29:07;99955.16;;;18.61;78.32
7109;BME280;29079;41.930;25.558;2023-09-19T06:31:55;99964.66;;;18.57;79.08
7109;BME280;29079;41.930;25.558;2023-09-19T06:34:43;99972.63;;;18.82;77.64
7109;BME280;29079;41.930;25.558;2023-09-19T06:37:34;99969.50;;;18.93;77.74
7109;BME280;29079;41.930;25.558;2023-09-19T06:40:24;99971.41;;;18.85;78.59
7109;BME280;29079;41.930;25.558;2023-09-19T06:43:14;99968.19;;;18.89;78.48
7109;BME280;29079;41.930;25.558;2023-09-19T06:46:02;99968.44;;;19.03;77.30
7109;BME280;29079;41.930;25.558;2023-09-19T06:48:50;99975.97;;;18.92;77.79
7109;BME280;29079;41.930;25.558;2023-09-19T06:51:39;99966.19;;;19.29;76.03
7109;BME280;29079;41.930;25.558;2023-09-19T06:54:29;99961.66;;;19.45;76.27
7109;BME280;29079;41.930;25.558;2023-09-19T06:57:18;99954.38;;;19.45;75.59
7109;BME280;29079;41.930;25.558;2023-09-19T07:00:07;99966.59;;;19.41;73.79
7109;BME280;29079;41.930;25.558;2023-09-19T07:03:03;99957.44;;;19.42;73.94
7109;BME280;29079;41.930;25.558;2023-09-19T07:05:55;99959.59;;;19.47;73.42
7109;BME280;29079;41.930;25.558;2023-09-19T07:08:45;99960.84;;;19.74;72.18
7109;BME280;29079;41.930;25.558;2023-09-19T07:11:34;99957.63;;;19.79;71.80
7109;BME280;29079;41.930;25.558;2023-09-19T07:14:23;99939.22;;;19.89;71.07
7109;BME280;29079;41.930;25.558;2023-09-19T07:17:11;99954.63;;;20.04;71.62
7109;BME280;29079;41.930;25.558;2023-09-19T07:19:59;99949.50;;;20.09;70.87
7109;BME280;29079;41.930;25.558;2023-09-19T07:22:48;99947.16;;;20.06;71.40
7109;BME280;29079;41.930;25.558;2023-09-19T07:25:37;99949.03;;;20.20;70.81
7109;BME280;29079;41.930;25.558;2023-09-19T07:28:26;99940.13;;;20.26;71.34
7109;BME280;29079;41.930;25.558;2023-09-19T07:31:14;99940.31;;;20.25;71.18
7109;BME280;29079;41.930;25.558;2023-09-19T07:34:03;99928.63;;;20.24;70.86
7109;BME280;29079;41.930;25.558;2023-09-19T07:36:52;99931.16;;;20.11;71.02
7109;BME280;29079;41.930;25.558;2023-09-19T07:39:40;99898.66;;;20.11;70.54
7109;BME280;29079;41.930;25.558;2023-09-19T07:42:28;99851.44;;;19.83;70.74
7109;BME280;29079;41.930;25.558;2023-09-19T07:45:18;99923.06;;;20.47;70.41
7109;BME280;29079;41.930;25.558;2023-09-19T07:48:07;99925.22;;;20.52;70.58
7109;BME280;29079;41.930;25.558;2023-09-19T07:51:02;99923.22;;;20.61;69.75
7109;BME280;29079;41.930;25.558;2023-09-19T07:53:51;99888.06;;;20.67;69.49
7109;BME280;29079;41.930;25.558;2023-09-19T07:56:39;99909.63;;;20.76;68.80
7109;BME280;29079;41.930;25.558;2023-09-19T07:59:27;99914.59;;;20.72;68.96
7109;BME280;29079;41.930;25.558;2023-09-19T08:02:16;99913.56;;;20.73;68.75
7109;BME280;29079;41.930;25.558;2023-09-19T08:05:05;99914.03;;;20.77;68.47
7109;BME280;29079;41.930;25.558;2023-09-19T08:07:56;99908.56;;;20.98;68.66
7109;BME280;29079;41.930;25.558;2023-09-19T08:10:45;99905.53;;;20.86;67.49
7109;BME280;29079;41.930;25.558;2023-09-19T08:13:40;99908.63;;;21.05;66.66
7109;BME280;29079;41.930;25.558;2023-09-19T08:16:30;99905.63;;;21.21;66.11
7109;BME280;29079;41.930;25.558;2023-09-19T08:19:20;99888.13;;;21.24;65.28
7109;BME280;29079;41.930;25.558;2023-09-19T08:22:10;99903.78;;;21.22;65.75
7109;BME280;29079;41.930;25.558;2023-09-19T08:24:58;99863.38;;;20.84;64.25
7109;BME280;29079;41.930;25.558;2023-09-19T08:27:46;99889.16;;;21.23;63.81
7109;BME280;29079;41.930;25.558;2023-09-19T08:30:36;99891.72;;;21.31;62.64
7109;BME280;29079;41.930;25.558;2023-09-19T08:33:27;99885.97;;;21.48;62.94
7109;BME280;29079;41.930;25.558;2023-09-19T08:36:16;99883.13;;;21.91;62.13
7109;BME280;29079;41.930;25.558;2023-09-19T08:39:04;99879.84;;;21.61;61.45
7109;BME280;29079;41.930;25.558;2023-09-19T08:41:57;99866.16;;;21.76;61.25
7109;BME280;29079;41.930;25.558;2023-09-19T08:44:45;99863.63;;;21.74;62.20
7109;BME280;29079;41.930;25.558;2023-09-19T08:47:38;99857.59;;;21.50;60.65
7109;BME280;29079;41.930;25.558;2023-09-19T08:50:30;99869.06;;;21.81;60.30
7109;BME280;29079;41.930;25.558;2023-09-19T08:53:26;99867.75;;;21.63;60.67
7109;BME280;29079;41.930;25.558;2023-09-19T08:56:17;99866.69;;;22.13;59.86
7109;BME280;29079;41.930;25.558;2023-09-19T08:59:06;99848.34;;;22.15;59.67
7109;BME280;29079;41.930;25.558;2023-09-19T09:01:56;99832.81;;;22.02;60.16
7109;BME280;29079;41.930;25.558;2023-09-19T09:04:45;99861.06;;;22.14;59.56
7109;BME280;29079;41.930;25.558;2023-09-19T09:07:34;99850.41;;;22.13;58.48
7109;BME280;29079;41.930;25.558;2023-09-19T09:10:25;99842.53;;;22.38;57.74
7109;BME280;29079;41.930;25.558;2023-09-19T09:13:14;99844.88;;;22.61;57.21
7109;BME280;29079;41.930;25.558;2023-09-19T09:16:02;99839.63;;;22.46;57.85
7109;BME280;29079;41.930;25.558;2023-09-19T09:18:50;99838.56;;;22.40;57.82
7109;BME280;29079;41.930;25.558;2023-09-19T09:21:40;99804.84;;;22.15;57.17
7109;BME280;29079;41.930;25.558;2023-09-19T09:24:28;99826.69;;;22.55;57.11
7109;BME280;29079;41.930;25.558;2023-09-19T09:27:18;99817.91;;;22.73;57.54
7109;BME280;29079;41.930;25.558;2023-09-19T09:30:07;99829.63;;;22.87;56.32
7109;BME280;29079;41.930;25.558;2023-09-19T09:33:07;99808.69;;;22.81;55.51
7109;BME280;29079;41.930;25.558;2023-09-19T09:35:59;99811.22;;;22.89;54.39
7109;BME280;29079;41.930;25.558;2023-09-19T09:38:49;99799.28;;;22.76;55.19
7109;BME280;29079;41.930;25.558;2023-09-19T09:41:37;99810.78;;;22.99;54.87
7109;BME280;29079;41.930;25.558;2023-09-19T09:44:27;99812.28;;;22.74;54.45
7109;BME280;29079;41.930;25.558;2023-09-19T09:47:44;99809.94;;;22.91;54.97
7109;BME280;29079;41.930;25.558;2023-09-19T09:50:46;99809.34;;;22.96;54.39
7109;BME280;29079;41.930;25.558;2023-09-19T09:53:42;99801.16;;;23.23;53.58
7109;BME280;29079;41.930;25.558;2023-09-19T09:56:32;99801.56;;;23.13;53.85
7109;BME280;29079;41.930;25.558;2023-09-19T09:59:23;99801.56;;;23.20;54.19
7109;BME280;29079;41.930;25.558;2023-09-19T10:02:13;99788.19;;;23.18;53.14
7109;BME280;29079;41.930;25.558;2023-09-19T10:05:12;99792.94;;;23.43;53.14
7109;BME280;29079;41.930;25.558;2023-09-19T10:08:17;99776.00;;;23.34;52.42
7109;BME280;29079;41.930;25.558;2023-09-19T10:11:15;99702.78;;;22.92;53.90
7109;BME280;29079;41.930;25.558;2023-09-19T10:14:04;99773.44;;;23.39;53.00
7109;BME280;29079;41.930;25.558;2023-09-19T10:16:57;99773.28;;;23.27;51.37
7109;BME280;29079;41.930;25.558;2023-09-19T10:19:54;99773.44;;;23.39;51.51
7109;BME280;29079;41.930;25.558;2023-09-19T10:22:45;99772.41;;;23.40;52.17
7109;BME280;29079;41.930;25.558;2023-09-19T10:25:43;99769.28;;;23.37;51.81
7109;BME280;29079;41.930;25.558;2023-09-19T10:28:34;99757.38;;;23.24;51.24
7109;BME280;29079;41.930;25.558;2023-09-19T10:31:23;99753.34;;;23.40;50.69
7109;BME280;29079;41.930;25.558;2023-09-19T10:34:12;99754.41;;;23.91;50.09
7109;BME280;29079;41.930;25.558;2023-09-19T10:37:04;99756.88;;;23.99;50.38
7109;BME280;29079;41.930;25.558;2023-09-19T10:39:56;99699.53;;;23.36;51.53
7109;BME280;29079;41.930;25.558;2023-09-19T10:42:46;99747.78;;;23.67;51.23
7109;BME280;29079;41.930;25.558;2023-09-19T10:45:36;99741.91;;;24.09;48.82
7109;BME280;29079;41.930;25.558;2023-09-19T10:48:26;99740.91;;;24.03;48.78
7109;BME280;29079;41.930;25.558;2023-09-19T10:51:16;99731.47;;;24.06;50.36
7109;BME280;29079;41.930;25.558;2023-09-19T10:54:11;99726.09;;;23.86;49.09
7109;BME280;29079;41.930;25.558;2023-09-19T10:57:00;99723.09;;;24.01;50.04
7109;BME280;29079;41.930;25.558;2023-09-19T11:00:02;99722.19;;;23.75;51.74
7109;BME280;29079;41.930;25.558;2023-09-19T11:03:18;99725.06;;;23.93;49.52
7109;BME280;29079;41.930;25.558;2023-09-19T11:06:11;99711.22;;;23.81;48.90
7109;BME280;29079;41.930;25.558;2023-09-19T11:09:03;99717.31;;;23.84;48.25
7109;BME280;29079;41.930;25.558;2023-09-19T11:12:10;99710.47;;;24.06;48.45
7109;BME280;29079;41.930;25.558;2023-09-19T11:14:58;99703.84;;;23.95;48.58
7109;BME280;29079;41.930;25.558;2023-09-19T11:17:46;99703.97;;;24.07;48.34
7109;BME280;29079;41.930;25.558;2023-09-19T11:20:34;99616.72;;;23.82;48.10
7109;BME280;29079;41.930;25.558;2023-09-19T11:23:38;99689.72;;;24.37;47.08
7109;BME280;29079;41.930;25.558;2023-09-19T11:26:40;99654.66;;;23.84;46.77
7109;BME280;29079;41.930;25.558;2023-09-19T11:29:31;99681.53;;;24.56;46.27
7109;BME280;29079;41.930;25.558;2023-09-19T11:36:01;99635.97;;;23.87;46.00
7109;BME280;29079;41.930;25.558;2023-09-19T11:39:00;99662.81;;;24.66;44.79
7109;BME280;29079;41.930;25.558;2023-09-19T11:41:55;99657.28;;;24.73;45.06
7109;BME280;29079;41.930;25.558;2023-09-19T11:44:45;99657.44;;;24.78;45.03
7109;BME280;29079;41.930;25.558;2023-09-19T11:47:33;99578.84;;;24.24;45.51
7109;BME280;29079;41.930;25.558;2023-09-19T11:50:23;99649.59;;;24.63;45.41
7109;BME280;29079;41.930;25.558;2023-09-19T11:53:11;99641.72;;;24.73;44.60
7109;BME280;29079;41.930;25.558;2023-09-19T11:56:00;99567.81;;;24.38;42.49
7109;BME280;29079;41.930;25.558;2023-09-19T11:58:50;99641.97;;;24.72;41.27
7109;BME280;29079;41.930;25.558;2023-09-19T12:01:50;99632.13;;;24.71;40.67
7109;BME280;29079;41.930;25.558;2023-09-19T12:04:42;99639.34;;;24.83;41.28
7109;BME280;29079;41.930;25.558;2023-09-19T12:07:42;99616.28;;;24.61;41.85
7109;BME280;29079;41.930;25.558;2023-09-19T12:10:31;99616.63;;;24.64;43.41
7109;BME280;29079;41.930;25.558;2023-09-19T12:13:19;99543.47;;;24.17;44.22
7109;BME280;29079;41.930;25.558;2023-09-19T12:16:12;99602.19;;;24.64;45.50
7109;BME280;29079;41.930;25.558;2023-09-19T12:19:22;99614.59;;;24.60;44.47
7109;BME280;29079;41.930;25.558;2023-09-19T12:22:10;99596.56;;;24.59;45.39
7109;BME280;29079;41.930;25.558;2023-09-19T12:25:06;99574.09;;;24.57;43.52
7109;BME280;29079;41.930;25.558;2023-09-19T12:27:55;99543.28;;;24.56;42.35
7109;BME280;29079;41.930;25.558;2023-09-19T12:30:44;99601.47;;;25.06;43.90
7109;BME280;29079;41.930;25.558;2023-09-19T12:33:32;99596.47;;;25.02;44.80
7109;BME280;29079;41.930;25.558;2023-09-19T12:36:23;99589.81;;;24.98;43.88
7109;BME280;29079;41.930;25.558;2023-09-19T12:39:23;99527.50;;;24.58;42.99
7109;BME280;29079;41.930;25.558;2023-09-19T12:42:12;99588.66;;;24.88;46.05
7109;BME280;29079;41.930;25.558;2023-09-19T12:45:01;99542.41;;;24.56;44.42
7109;BME280;29079;41.930;25.558;2023-09-19T12:48:18;99588.06;;;24.67;45.37
7109;BME280;29079;41.930;25.558;2023-09-19T12:51:09;99580.50;;;24.69;46.27
7109;BME280;29079;41.930;25.558;2023-09-19T12:54:01;99576.41;;;24.60;44.47
7109;BME280;29079;41.930;25.558;2023-09-19T12:56:49;99583.53;;;24.61;47.81
7109;BME280;29079;41.930;25.558;2023-09-19T12:59:37;99573.97;;;24.51;45.33
7109;BME280;29079;41.930;25.558;2023-09-19T13:02:26;99571.13;;;24.65;44.65
7109;BME280;29079;41.930;25.558;2023-09-19T13:05:15;99573.38;;;24.68;45.60
7109;BME280;29079;41.930;25.558;2023-09-19T13:08:17;99572.09;;;24.71;42.15
7109;BME280;29079;41.930;25.558;2023-09-19T13:11:12;99574.59;;;24.72;49.95
7109;BME280;29079;41.930;25.558;2023-09-19T13:14:14;99567.84;;;24.75;42.55
7109;BME280;29079;41.930;25.558;2023-09-19T13:17:03;99552.91;;;24.77;42.64
7109;BME280;29079;41.930;25.558;2023-09-19T13:20:04;99546.31;;;24.85;48.39
7109;BME280;29079;41.930;25.558;2023-09-19T13:22:54;99555.91;;;24.88;44.25
7109;BME280;29079;41.930;25.558;2023-09-19T13:25:46;99443.66;;;24.16;46.28
7109;BME280;29079;41.930;25.558;2023-09-19T13:28:37;99556.13;;;25.05;42.57
7109;BME280;29079;41.930;25.558;2023-09-19T13:31:25;99559.72;;;24.87;42.88
7109;BME280;29079;41.930;25.558;2023-09-19T13:34:13;99561.50;;;25.11;42.31
7109;BME280;29079;41.930;25.558;2023-09-19T13:37:03;99560.28;;;25.07;48.60
7109;BME280;29079;41.930;25.558;2023-09-19T13:39:53;99475.69;;;24.40;42.17
7109;BME280;29079;41.930;25.558;2023-09-19T13:42:41;99561.75;;;25.10;42.81
7109;BME280;29079;41.930;25.558;2023-09-19T13:45:31;99563.38;;;25.11;42.54
7109;BME280;29079;41.930;25.558;2023-09-19T13:48:19;99552.09;;;25.07;46.38
7109;BME280;29079;41.930;25.558;2023-09-19T13:51:09;99557.66;;;25.00;44.54
7109;BME280;29079;41.930;25.558;2023-09-19T13:53:57;99550.59;;;25.11;40.54
7109;BME280;29079;41.930;25.558;2023-09-19T13:56:45;99547.16;;;25.16;43.65
7109;BME280;29079;41.930;25.558;2023-09-19T13:59:33;99552.16;;;25.19;43.85
7109;BME280;29079;41.930;25.558;2023-09-19T14:02:22;99545.00;;;25.18;39.38
7109;BME280;29079;41.930;25.558;2023-09-19T14:05:11;99554.38;;;25.10;40.91
7109;BME280;29079;41.930;25.558;2023-09-19T14:08:01;99548.75;;;25.05;43.67
7109;BME280;29079;41.930;25.558;2023-09-19T14:10:50;99554.41;;;24.92;38.81
7109;BME280;29079;41.930;25.558;2023-09-19T14:13:38;99543.19;;;25.00;37.44
7109;BME280;29079;41.930;25.558;2023-09-19T14:16:26;99538.69;;;25.06;39.07
7109;BME280;29079;41.930;25.558;2023-09-19T14:19:18;99537.72;;;25.00;38.82
7109;BME280;29079;41.930;25.558;2023-09-19T14:22:05;99544.75;;;25.08;38.48
7109;BME280;29079;41.930;25.558;2023-09-19T14:24:55;99540.91;;;24.97;38.53
7109;BME280;29079;41.930;25.558;2023-09-19T14:27:43;99535.72;;;25.07;40.93
7109;BME280;29079;41.930;25.558;2023-09-19T14:30:31;99538.31;;;25.02;42.06
7109;BME280;29079;41.930;25.558;2023-09-19T14:33:19;99536.03;;;24.99;39.88
7109;BME280;29079;41.930;25.558;2023-09-19T14:36:09;99534.47;;;24.91;40.59
7109;BME280;29079;41.930;25.558;2023-09-19T14:38:57;99456.16;;;24.43;46.96
7109;BME280;29079;41.930;25.558;2023-09-19T14:41:45;99529.84;;;24.92;42.73
7109;BME280;29079;41.930;25.558;2023-09-19T14:44:33;99531.50;;;24.93;47.59
7109;BME280;29079;41.930;25.558;2023-09-19T14:47:21;99532.59;;;24.73;42.52
7109;BME280;29079;41.930;25.558;2023-09-19T14:50:10;99528.97;;;24.79;42.53
7109;BME280;29079;41.930;25.558;2023-09-19T14:53:00;99526.31;;;24.73;41.88
7109;BME280;29079;41.930;25.558;2023-09-19T14:55:48;99504.19;;;24.62;44.94
7109;BME280;29079;41.930;25.558;2023-09-19T14:58:38;99535.00;;;24.81;41.96
7109;BME280;29079;41.930;25.558;2023-09-19T15:01:27;99534.03;;;24.76;41.22
7109;BME280;29079;41.930;25.558;2023-09-19T15:04:15;99533.50;;;24.67;45.54
7109;BME280;29079;41.930;25.558;2023-09-19T15:07:04;99532.97;;;24.77;44.14